sensor_id;sensor_type;location;lat;lon;timestamp;temperature;humidity
59128;DHT22;44912;52.754;5.994;2022-07-04T00:00:00;13.70;99.90
59128;DHT22;44912;52.754;5.994;2022-07-04T00:02:26;13.60;99.90
59128;DHT22;44912;52.754;5.994;2022-07-04T00:04:51;13.50;99.90
59128;DHT22;44912;52.754;5.994;2022-07-04T00:07:17;13.50;99.90
59128;DHT22;44912;52.754;5.994;2022-07-04T00:09:42;13.50;99.90
59128;DHT22;44912;52.754;5.994;2022-07-04T00:12:08;13.60;99.90
59128;DHT22;44912;52.754;5.994;2022-07-04T00:14:35;13.60;99.90
59128;DHT22;44912;52.754;5.994;2022-07-04T00:17:01;13.70;99.90
59128;DHT22;44912;52.754;5.994;2022-07-04T00:19:26;13.70;99.90
59128;DHT22;44912;52.754;5.994;2022-07-04T00:21:52;13.70;99.90
59128;DHT22;44912;52.754;5.994;2022-07-04T00:24:18;13.60;99.90
59128;DHT22;44912;52.754;5.994;2022-07-04T00:26:43;13.40;99.90
59128;DHT22;44912;52.754;5.994;2022-07-04T00:29:09;13.30;99.90
59128;DHT22;44912;52.754;5.994;2022-07-04T00:31:34;13.10;99.90
59128;DHT22;44912;52.754;5.994;2022-07-04T00:34:01;13.00;99.90
59128;DHT22;44912;52.754;5.994;2022-07-04T00:36:26;13.00;99.90
59128;DHT22;44912;52.754;5.994;2022-07-04T00:38:52;13.00;99.90
59128;DHT22;44912;52.754;5.994;2022-07-04T00:41:18;13.10;99.90
59128;DHT22;44912;52.754;5.994;2022-07-04T00:43:43;13.20;99.90
59128;DHT22;44912;52.754;5.994;2022-07-04T00:46:09;13.30;99.90
59128;DHT22;44912;52.754;5.994;2022-07-04T00:48:35;13.30;99.90
59128;DHT22;44912;52.754;5.994;2022-07-04T00:51:00;13.40;99.90
59128;DHT22;44912;52.754;5.994;2022-07-04T00:53:26;13.40;99.90
59128;DHT22;44912;52.754;5.994;2022-07-04T00:55:52;13.30;99.90
59128;DHT22;44912;52.754;5.994;2022-07-04T00:58:22;13.40;99.90
59128;DHT22;44912;52.754;5.994;2022-07-04T01:00:48;13.40;99.90
59128;DHT22;44912;52.754;5.994;2022-07-04T01:03:15;13.50;99.90
59128;DHT22;44912;52.754;5.994;2022-07-04T01:05:42;13.50;99.90
59128;DHT22;44912;52.754;5.994;2022-07-04T01:08:07;13.50;99.90
59128;DHT22;44912;52.754;5.994;2022-07-04T01:10:33;13.50;99.90
59128;DHT22;44912;52.754;5.994;2022-07-04T01:12:59;13.50;99.90
59128;DHT22;44912;52.754;5.994;2022-07-04T01:15:25;13.60;99.90
59128;DHT22;44912;52.754;5.994;2022-07-04T01:17:50;13.60;99.90
59128;DHT22;44912;52.754;5.994;2022-07-04T01:20:16;13.70;99.90
59128;DHT22;44912;52.754;5.994;2022-07-04T01:22:42;13.60;99.90
59128;DHT22;44912;52.754;5.994;2022-07-04T01:25:09;13.70;99.90
59128;DHT22;44912;52.754;5.994;2022-07-04T01:27:34;13.60;99.90
59128;DHT22;44912;52.754;5.994;2022-07-04T01:30:00;13.60;99.90
59128;DHT22;44912;52.754;5.994;2022-07-04T01:32:26;13.70;99.90
59128;DHT22;44912;52.754;5.994;2022-07-04T01:34:51;13.60;99.90
59128;DHT22;44912;52.754;5.994;2022-07-04T01:37:17;13.70;99.90
59128;DHT22;44912;52.754;5.994;2022-07-04T01:39:43;13.70;99.90
59128;DHT22;44912;52.754;5.994;2022-07-04T01:42:09;13.60;99.90
59128;DHT22;44912;52.754;5.994;2022-07-04T01:44:35;13.60;99.90
59128;DHT22;44912;52.754;5.994;2022-07-04T01:47:01;13.60;99.90
59128;DHT22;44912;52.754;5.994;2022-07-04T01:49:27;13.50;99.90
59128;DHT22;44912;52.754;5.994;2022-07-04T01:51:53;13.50;99.90
59128;DHT22;44912;52.754;5.994;2022-07-04T01:54:19;13.50;99.90
59128;DHT22;44912;52.754;5.994;2022-07-04T01:56:45;13.50;99.90
59128;DHT22;44912;52.754;5.994;2022-07-04T01:59:11;13.50;99.90
59128;DHT22;44912;52.754;5.994;2022-07-04T02:01:37;13.50;99.90
59128;DHT22;44912;52.754;5.994;2022-07-04T02:04:05;13.40;99.90
59128;DHT22;44912;52.754;5.994;2022-07-04T02:06:32;13.40;99.90
59128;DHT22;44912;52.754;5.994;2022-07-04T02:08:58;13.30;99.90
59128;DHT22;44912;52.754;5.994;2022-07-04T02:11:43;13.30;99.90
59128;DHT22;44912;52.754;5.994;2022-07-04T02:14:29;13.40;99.90
59128;DHT22;44912;52.754;5.994;2022-07-04T02:16:54;13.40;99.90
59128;DHT22;44912;52.754;5.994;2022-07-04T02:19:20;13.40;99.90
59128;DHT22;44912;52.754;5.994;2022-07-04T02:21:45;13.40;99.90
59128;DHT22;44912;52.754;5.994;2022-07-04T02:24:11;13.40;99.90
59128;DHT22;44912;52.754;5.994;2022-07-04T02:26:37;13.40;99.90
59128;DHT22;44912;52.754;5.994;2022-07-04T02:29:02;13.30;99.90
59128;DHT22;44912;52.754;5.994;2022-07-04T02:31:28;13.30;99.90
59128;DHT22;44912;52.754;5.994;2022-07-04T02:33:53;13.30;99.90
59128;DHT22;44912;52.754;5.994;2022-07-04T02:36:19;13.30;99.90
59128;DHT22;44912;52.754;5.994;2022-07-04T02:38:44;13.20;99.90
59128;DHT22;44912;52.754;5.994;2022-07-04T02:41:10;13.20;99.90
59128;DHT22;44912;52.754;5.994;2022-07-04T02:43:35;13.20;99.90
59128;DHT22;44912;52.754;5.994;2022-07-04T02:46:01;13.20;99.90
59128;DHT22;44912;52.754;5.994;2022-07-04T02:48:26;13.20;99.90
59128;DHT22;44912;52.754;5.994;2022-07-04T02:50:52;13.20;99.90
59128;DHT22;44912;52.754;5.994;2022-07-04T02:53:17;13.10;99.90
59128;DHT22;44912;52.754;5.994;2022-07-04T02:55:43;13.10;99.90
59128;DHT22;44912;52.754;5.994;2022-07-04T02:58:09;13.10;99.90
59128;DHT22;44912;52.754;5.994;2022-07-04T03:00:34;13.00;99.90
59128;DHT22;44912;52.754;5.994;2022-07-04T03:03:00;12.90;99.90
59128;DHT22;44912;52.754;5.994;2022-07-04T03:05:25;12.90;99.90
59128;DHT22;44912;52.754;5.994;2022-07-04T03:07:53;13.00;99.90
59128;DHT22;44912;52.754;5.994;2022-07-04T03:10:19;13.00;99.90
59128;DHT22;44912;52.754;5.994;2022-07-04T03:12:45;13.10;99.90
59128;DHT22;44912;52.754;5.994;2022-07-04T03:15:10;13.10;99.90
59128;DHT22;44912;52.754;5.994;2022-07-04T03:17:36;13.10;99.90
59128;DHT22;44912;52.754;5.994;2022-07-04T03:20:01;13.10;99.90
59128;DHT22;44912;52.754;5.994;2022-07-04T03:22:27;13.10;99.90
59128;DHT22;44912;52.754;5.994;2022-07-04T03:24:53;13.10;99.90
59128;DHT22;44912;52.754;5.994;2022-07-04T03:27:18;13.10;99.90
59128;DHT22;44912;52.754;5.994;2022-07-04T03:29:44;13.00;99.90
59128;DHT22;44912;52.754;5.994;2022-07-04T03:32:09;12.90;99.90
59128;DHT22;44912;52.754;5.994;2022-07-04T03:34:35;12.90;99.90
59128;DHT22;44912;52.754;5.994;2022-07-04T03:37:01;13.00;99.90
59128;DHT22;44912;52.754;5.994;2022-07-04T03:39:26;13.00;99.90
59128;DHT22;44912;52.754;5.994;2022-07-04T03:41:52;13.00;99.90
59128;DHT22;44912;52.754;5.994;2022-07-04T03:44:17;13.00;99.90
59128;DHT22;44912;52.754;5.994;2022-07-04T03:46:43;13.10;99.90
59128;DHT22;44912;52.754;5.994;2022-07-04T03:49:08;13.10;99.90
59128;DHT22;44912;52.754;5.994;2022-07-04T03:51:34;13.10;99.90
59128;DHT22;44912;52.754;5.994;2022-07-04T03:54:00;13.20;99.90
59128;DHT22;44912;52.754;5.994;2022-07-04T03:56:25;13.20;99.90
59128;DHT22;44912;52.754;5.994;2022-07-04T03:58:51;13.30;99.90
59128;DHT22;44912;52.754;5.994;2022-07-04T04:01:17;13.30;99.90
59128;DHT22;44912;52.754;5.994;2022-07-04T04:03:43;13.40;99.90
59128;DHT22;44912;52.754;5.994;2022-07-04T04:06:28;13.50;99.90
59128;DHT22;44912;52.754;5.994;2022-07-04T04:08:54;13.50;99.90
59128;DHT22;44912;52.754;5.994;2022-07-04T04:11:19;13.60;99.90
59128;DHT22;44912;52.754;5.994;2022-07-04T04:13:45;13.60;99.90
59128;DHT22;44912;52.754;5.994;2022-07-04T04:16:10;13.60;99.90
59128;DHT22;44912;52.754;5.994;2022-07-04T04:18:36;13.70;99.90
59128;DHT22;44912;52.754;5.994;2022-07-04T04:21:03;13.80;99.90
59128;DHT22;44912;52.754;5.994;2022-07-04T04:23:28;13.80;99.90
59128;DHT22;44912;52.754;5.994;2022-07-04T04:25:54;13.90;99.90
59128;DHT22;44912;52.754;5.994;2022-07-04T04:28:20;14.00;99.90
59128;DHT22;44912;52.754;5.994;2022-07-04T04:30:46;14.10;99.90
59128;DHT22;44912;52.754;5.994;2022-07-04T04:33:11;14.20;99.90
59128;DHT22;44912;52.754;5.994;2022-07-04T04:35:37;14.20;99.90
59128;DHT22;44912;52.754;5.994;2022-07-04T04:38:03;14.30;99.90
59128;DHT22;44912;52.754;5.994;2022-07-04T04:40:28;14.40;99.90
59128;DHT22;44912;52.754;5.994;2022-07-04T04:42:55;14.40;99.90
59128;DHT22;44912;52.754;5.994;2022-07-04T04:45:21;14.50;99.90
59128;DHT22;44912;52.754;5.994;2022-07-04T04:47:46;14.50;99.90
59128;DHT22;44912;52.754;5.994;2022-07-04T04:50:12;14.60;99.90
59128;DHT22;44912;52.754;5.994;2022-07-04T04:52:40;14.60;99.90
59128;DHT22;44912;52.754;5.994;2022-07-04T04:55:07;14.70;99.90
59128;DHT22;44912;52.754;5.994;2022-07-04T04:57:32;14.60;99.90
59128;DHT22;44912;52.754;5.994;2022-07-04T04:59:58;14.70;99.90
59128;DHT22;44912;52.754;5.994;2022-07-04T05:02:24;14.70;99.90
59128;DHT22;44912;52.754;5.994;2022-07-04T05:04:49;14.80;99.90
59128;DHT22;44912;52.754;5.994;2022-07-04T05:07:15;14.80;99.90
59128;DHT22;44912;52.754;5.994;2022-07-04T05:09:40;14.80;99.90
59128;DHT22;44912;52.754;5.994;2022-07-04T05:12:06;14.90;99.90
59128;DHT22;44912;52.754;5.994;2022-07-04T05:14:32;14.90;99.90
59128;DHT22;44912;52.754;5.994;2022-07-04T05:16:57;15.00;99.90
59128;DHT22;44912;52.754;5.994;2022-07-04T05:19:23;15.00;99.90
59128;DHT22;44912;52.754;5.994;2022-07-04T05:21:48;15.10;99.90
59128;DHT22;44912;52.754;5.994;2022-07-04T05:24:14;15.10;99.90
59128;DHT22;44912;52.754;5.994;2022-07-04T05:26:40;15.20;99.90
59128;DHT22;44912;52.754;5.994;2022-07-04T05:29:05;15.20;99.90
59128;DHT22;44912;52.754;5.994;2022-07-04T05:31:31;15.30;99.90
59128;DHT22;44912;52.754;5.994;2022-07-04T05:33:57;15.40;99.90
59128;DHT22;44912;52.754;5.994;2022-07-04T05:36:24;15.40;99.90
59128;DHT22;44912;52.754;5.994;2022-07-04T05:38:49;15.50;99.90
59128;DHT22;44912;52.754;5.994;2022-07-04T05:41:15;15.60;99.90
59128;DHT22;44912;52.754;5.994;2022-07-04T05:43:41;15.70;99.90
59128;DHT22;44912;52.754;5.994;2022-07-04T05:46:07;15.70;99.90
59128;DHT22;44912;52.754;5.994;2022-07-04T05:48:32;15.80;99.90
59128;DHT22;44912;52.754;5.994;2022-07-04T05:50:58;15.80;99.90
59128;DHT22;44912;52.754;5.994;2022-07-04T05:53:23;15.90;99.90
59128;DHT22;44912;52.754;5.994;2022-07-04T05:55:49;16.00;99.90
59128;DHT22;44912;52.754;5.994;2022-07-04T05:58:14;16.10;99.90
59128;DHT22;44912;52.754;5.994;2022-07-04T06:00:41;16.10;99.90
59128;DHT22;44912;52.754;5.994;2022-07-04T06:03:07;16.20;99.90
59128;DHT22;44912;52.754;5.994;2022-07-04T06:05:33;16.20;99.90
59128;DHT22;44912;52.754;5.994;2022-07-04T06:07:59;16.30;99.90
59128;DHT22;44912;52.754;5.994;2022-07-04T06:10:25;16.30;99.90
59128;DHT22;44912;52.754;5.994;2022-07-04T06:12:51;16.40;99.90
59128;DHT22;44912;52.754;5.994;2022-07-04T06:15:16;16.40;99.90
59128;DHT22;44912;52.754;5.994;2022-07-04T06:17:42;16.50;99.90
59128;DHT22;44912;52.754;5.994;2022-07-04T06:20:08;16.70;99.90
59128;DHT22;44912;52.754;5.994;2022-07-04T06:22:46;16.80;99.90
59128;DHT22;44912;52.754;5.994;2022-07-04T06:25:13;16.80;99.90
59128;DHT22;44912;52.754;5.994;2022-07-04T06:27:40;16.80;99.90
59128;DHT22;44912;52.754;5.994;2022-07-04T06:30:07;16.80;99.90
59128;DHT22;44912;52.754;5.994;2022-07-04T06:32:49;16.80;99.90
59128;DHT22;44912;52.754;5.994;2022-07-04T06:35:24;16.80;99.90
59128;DHT22;44912;52.754;5.994;2022-07-04T06:38:09;16.90;99.90
59128;DHT22;44912;52.754;5.994;2022-07-04T06:40:37;17.00;99.90
59128;DHT22;44912;52.754;5.994;2022-07-04T06:43:03;16.90;99.90
59128;DHT22;44912;52.754;5.994;2022-07-04T06:45:29;17.00;99.90
59128;DHT22;44912;52.754;5.994;2022-07-04T06:47:54;17.20;99.90
59128;DHT22;44912;52.754;5.994;2022-07-04T06:50:20;17.20;99.90
59128;DHT22;44912;52.754;5.994;2022-07-04T06:52:46;17.30;99.90
59128;DHT22;44912;52.754;5.994;2022-07-04T06:55:12;17.30;99.90
59128;DHT22;44912;52.754;5.994;2022-07-04T06:57:37;17.40;99.90
59128;DHT22;44912;52.754;5.994;2022-07-04T07:00:08;17.50;99.90
59128;DHT22;44912;52.754;5.994;2022-07-04T07:02:35;17.60;99.90
59128;DHT22;44912;52.754;5.994;2022-07-04T07:05:00;17.60;99.90
59128;DHT22;44912;52.754;5.994;2022-07-04T07:07:26;17.60;99.90
59128;DHT22;44912;52.754;5.994;2022-07-04T07:09:53;17.60;99.90
59128;DHT22;44912;52.754;5.994;2022-07-04T07:12:19;17.60;99.90
59128;DHT22;44912;52.754;5.994;2022-07-04T07:14:45;17.70;99.90
59128;DHT22;44912;52.754;5.994;2022-07-04T07:17:10;17.80;99.90
59128;DHT22;44912;52.754;5.994;2022-07-04T07:19:36;17.90;99.90
59128;DHT22;44912;52.754;5.994;2022-07-04T07:22:02;18.00;99.90
59128;DHT22;44912;52.754;5.994;2022-07-04T07:24:27;18.10;99.90
59128;DHT22;44912;52.754;5.994;2022-07-04T07:26:56;18.20;99.90
59128;DHT22;44912;52.754;5.994;2022-07-04T07:29:22;18.20;99.90
59128;DHT22;44912;52.754;5.994;2022-07-04T07:31:47;18.30;99.90
59128;DHT22;44912;52.754;5.994;2022-07-04T07:34:13;18.30;99.90
59128;DHT22;44912;52.754;5.994;2022-07-04T07:36:38;18.40;99.90
59128;DHT22;44912;52.754;5.994;2022-07-04T07:39:04;18.40;99.90
59128;DHT22;44912;52.754;5.994;2022-07-04T07:41:29;18.30;99.90
59128;DHT22;44912;52.754;5.994;2022-07-04T07:43:55;18.30;99.90
59128;DHT22;44912;52.754;5.994;2022-07-04T07:46:21;18.40;99.90
59128;DHT22;44912;52.754;5.994;2022-07-04T07:48:46;18.60;99.90
59128;DHT22;44912;52.754;5.994;2022-07-04T07:51:12;18.60;99.90
59128;DHT22;44912;52.754;5.994;2022-07-04T07:53:39;18.60;99.90
59128;DHT22;44912;52.754;5.994;2022-07-04T07:56:05;18.70;99.90
59128;DHT22;44912;52.754;5.994;2022-07-04T07:58:30;18.90;99.90
59128;DHT22;44912;52.754;5.994;2022-07-04T08:00:56;19.00;99.90
59128;DHT22;44912;52.754;5.994;2022-07-04T08:03:23;19.10;99.90
59128;DHT22;44912;52.754;5.994;2022-07-04T08:06:07;19.00;99.90
59128;DHT22;44912;52.754;5.994;2022-07-04T08:08:33;18.80;99.90
59128;DHT22;44912;52.754;5.994;2022-07-04T08:10:58;18.60;99.90
59128;DHT22;44912;52.754;5.994;2022-07-04T08:13:24;18.50;99.90
59128;DHT22;44912;52.754;5.994;2022-07-04T08:15:50;18.30;99.90
59128;DHT22;44912;52.754;5.994;2022-07-04T08:18:15;18.30;99.90
59128;DHT22;44912;52.754;5.994;2022-07-04T08:20:42;18.40;99.90
59128;DHT22;44912;52.754;5.994;2022-07-04T08:23:08;18.50;99.90
59128;DHT22;44912;52.754;5.994;2022-07-04T08:25:33;18.80;99.90
59128;DHT22;44912;52.754;5.994;2022-07-04T08:27:59;19.00;99.90
59128;DHT22;44912;52.754;5.994;2022-07-04T08:30:24;19.10;99.90
59128;DHT22;44912;52.754;5.994;2022-07-04T08:32:50;19.10;99.90
59128;DHT22;44912;52.754;5.994;2022-07-04T08:35:16;19.10;99.90
59128;DHT22;44912;52.754;5.994;2022-07-04T08:37:41;19.10;99.90
59128;DHT22;44912;52.754;5.994;2022-07-04T08:40:07;19.10;99.90
59128;DHT22;44912;52.754;5.994;2022-07-04T08:42:38;19.00;99.90
59128;DHT22;44912;52.754;5.994;2022-07-04T08:45:05;19.10;99.90
59128;DHT22;44912;52.754;5.994;2022-07-04T08:47:34;19.40;99.90
59128;DHT22;44912;52.754;5.994;2022-07-04T08:52:35;20.00;99.90
59128;DHT22;44912;52.754;5.994;2022-07-04T08:55:02;20.00;99.90
59128;DHT22;44912;52.754;5.994;2022-07-04T08:57:47;19.80;99.90
59128;DHT22;44912;52.754;5.994;2022-07-04T09:00:33;19.60;99.90
59128;DHT22;44912;52.754;5.994;2022-07-04T09:03:01;19.50;99.90
59128;DHT22;44912;52.754;5.994;2022-07-04T09:05:27;19.50;99.90
59128;DHT22;44912;52.754;5.994;2022-07-04T09:07:54;19.70;99.90
59128;DHT22;44912;52.754;5.994;2022-07-04T09:10:21;19.90;99.90
59128;DHT22;44912;52.754;5.994;2022-07-04T09:12:47;20.20;99.90
59128;DHT22;44912;52.754;5.994;2022-07-04T09:15:14;20.30;99.90
59128;DHT22;44912;52.754;5.994;2022-07-04T09:17:40;20.50;99.90
59128;DHT22;44912;52.754;5.994;2022-07-04T09:20:17;20.50;99.90
59128;DHT22;44912;52.754;5.994;2022-07-04T09:22:44;20.60;99.90
59128;DHT22;44912;52.754;5.994;2022-07-04T09:25:10;20.70;99.90
59128;DHT22;44912;52.754;5.994;2022-07-04T09:27:42;20.80;99.90
59128;DHT22;44912;52.754;5.994;2022-07-04T09:30:13;20.90;99.90
59128;DHT22;44912;52.754;5.994;2022-07-04T09:32:44;20.90;99.90
59128;DHT22;44912;52.754;5.994;2022-07-04T09:35:18;20.70;99.90
59128;DHT22;44912;52.754;5.994;2022-07-04T09:37:46;20.40;99.90
59128;DHT22;44912;52.754;5.994;2022-07-04T09:40:27;20.20;99.90
59128;DHT22;44912;52.754;5.994;2022-07-04T09:42:54;19.90;99.90
59128;DHT22;44912;52.754;5.994;2022-07-04T09:45:19;19.70;99.90
59128;DHT22;44912;52.754;5.994;2022-07-04T09:47:49;19.50;99.90
59128;DHT22;44912;52.754;5.994;2022-07-04T09:50:20;19.50;99.90
59128;DHT22;44912;52.754;5.994;2022-07-04T09:52:59;19.50;99.90
59128;DHT22;44912;52.754;5.994;2022-07-04T09:58:04;19.70;99.90
59128;DHT22;44912;52.754;5.994;2022-07-04T10:00:32;19.50;99.90
59128;DHT22;44912;52.754;5.994;2022-07-04T10:03:22;19.50;99.90
59128;DHT22;44912;52.754;5.994;2022-07-04T10:06:13;19.70;99.90
59128;DHT22;44912;52.754;5.994;2022-07-04T10:08:43;19.90;99.90
59128;DHT22;44912;52.754;5.994;2022-07-04T10:11:09;20.10;99.90
59128;DHT22;44912;52.754;5.994;2022-07-04T10:13:36;20.30;99.90
59128;DHT22;44912;52.754;5.994;2022-07-04T10:16:02;20.40;99.90
59128;DHT22;44912;52.754;5.994;2022-07-04T10:18:28;20.20;99.90
59128;DHT22;44912;52.754;5.994;2022-07-04T10:20:55;20.10;99.90
59128;DHT22;44912;52.754;5.994;2022-07-04T10:23:21;19.80;99.90
59128;DHT22;44912;52.754;5.994;2022-07-04T10:25:50;19.70;99.90
59128;DHT22;44912;52.754;5.994;2022-07-04T10:28:16;19.60;99.90
59128;DHT22;44912;52.754;5.994;2022-07-04T10:30:44;19.70;99.90
59128;DHT22;44912;52.754;5.994;2022-07-04T10:33:11;20.00;99.90
59128;DHT22;44912;52.754;5.994;2022-07-04T10:38:18;20.80;99.90
59128;DHT22;44912;52.754;5.994;2022-07-04T10:40:48;20.80;99.90
59128;DHT22;44912;52.754;5.994;2022-07-04T10:51:20;21.00;99.90
59128;DHT22;44912;52.754;5.994;2022-07-04T10:54:14;21.00;99.90
59128;DHT22;44912;52.754;5.994;2022-07-04T10:56:46;20.70;99.90
59128;DHT22;44912;52.754;5.994;2022-07-04T10:59:22;20.80;99.90
59128;DHT22;44912;52.754;5.994;2022-07-04T11:01:51;21.00;99.90
59128;DHT22;44912;52.754;5.994;2022-07-04T11:04:46;21.00;99.90
59128;DHT22;44912;52.754;5.994;2022-07-04T11:07:13;21.00;99.90
59128;DHT22;44912;52.754;5.994;2022-07-04T11:09:39;21.00;99.90
59128;DHT22;44912;52.754;5.994;2022-07-04T11:12:05;21.00;99.90
59128;DHT22;44912;52.754;5.994;2022-07-04T11:16:57;20.70;99.90
59128;DHT22;44912;52.754;5.994;2022-07-04T11:19:23;20.50;99.90
59128;DHT22;44912;52.754;5.994;2022-07-04T11:21:48;20.70;99.90
59128;DHT22;44912;52.754;5.994;2022-07-04T11:24:14;20.90;99.90
59128;DHT22;44912;52.754;5.994;2022-07-04T11:26:39;21.00;99.90
59128;DHT22;44912;52.754;5.994;2022-07-04T11:29:05;21.10;99.90
59128;DHT22;44912;52.754;5.994;2022-07-04T11:31:38;21.20;99.90
59128;DHT22;44912;52.754;5.994;2022-07-04T11:34:04;21.30;99.90
59128;DHT22;44912;52.754;5.994;2022-07-04T11:36:30;21.30;99.90
59128;DHT22;44912;52.754;5.994;2022-07-04T11:38:59;21.40;99.90
59128;DHT22;44912;52.754;5.994;2022-07-04T11:41:28;21.40;99.90
59128;DHT22;44912;52.754;5.994;2022-07-04T11:44:15;21.30;99.90
59128;DHT22;44912;52.754;5.994;2022-07-04T11:49:45;21.30;99.90
59128;DHT22;44912;52.754;5.994;2022-07-04T11:52:12;21.20;99.90
59128;DHT22;44912;52.754;5.994;2022-07-04T11:54:39;21.20;99.90
59128;DHT22;44912;52.754;5.994;2022-07-04T11:57:09;21.20;99.90
59128;DHT22;44912;52.754;5.994;2022-07-04T11:59:35;21.30;99.90
59128;DHT22;44912;52.754;5.994;2022-07-04T12:02:12;21.30;99.90
59128;DHT22;44912;52.754;5.994;2022-07-04T12:04:38;21.30;99.90
59128;DHT22;44912;52.754;5.994;2022-07-04T12:07:17;21.30;99.90
59128;DHT22;44912;52.754;5.994;2022-07-04T12:09:44;21.40;99.90
59128;DHT22;44912;52.754;5.994;2022-07-04T12:12:10;21.50;99.90
59128;DHT22;44912;52.754;5.994;2022-07-04T12:14:37;21.60;99.90
59128;DHT22;44912;52.754;5.994;2022-07-04T12:17:16;21.50;99.90
59128;DHT22;44912;52.754;5.994;2022-07-04T12:19:59;21.50;99.90
59128;DHT22;44912;52.754;5.994;2022-07-04T12:22:29;21.40;99.90
59128;DHT22;44912;52.754;5.994;2022-07-04T12:24:55;21.30;99.90
59128;DHT22;44912;52.754;5.994;2022-07-04T12:27:21;21.30;99.90
59128;DHT22;44912;52.754;5.994;2022-07-04T12:29:49;21.30;99.90
59128;DHT22;44912;52.754;5.994;2022-07-04T12:32:15;21.40;99.90
59128;DHT22;44912;52.754;5.994;2022-07-04T12:34:40;21.40;99.90
59128;DHT22;44912;52.754;5.994;2022-07-04T12:37:08;21.50;99.90
59128;DHT22;44912;52.754;5.994;2022-07-04T12:39:36;21.50;99.90
59128;DHT22;44912;52.754;5.994;2022-07-04T12:44:35;21.50;99.90
59128;DHT22;44912;52.754;5.994;2022-07-04T12:47:03;21.60;99.90
59128;DHT22;44912;52.754;5.994;2022-07-04T12:49:28;21.50;99.90
59128;DHT22;44912;52.754;5.994;2022-07-04T12:52:14;21.40;99.90
59128;DHT22;44912;52.754;5.994;2022-07-04T12:54:42;21.40;99.90
59128;DHT22;44912;52.754;5.994;2022-07-04T12:57:15;21.40;99.90
59128;DHT22;44912;52.754;5.994;2022-07-04T12:59:42;21.40;99.90
59128;DHT22;44912;52.754;5.994;2022-07-04T13:02:09;21.40;99.90
59128;DHT22;44912;52.754;5.994;2022-07-04T13:04:35;21.40;99.90
59128;DHT22;44912;52.754;5.994;2022-07-04T13:07:15;21.40;99.90
59128;DHT22;44912;52.754;5.994;2022-07-04T13:09:42;21.60;99.90
59128;DHT22;44912;52.754;5.994;2022-07-04T13:12:09;21.60;99.90
59128;DHT22;44912;52.754;5.994;2022-07-04T13:14:50;21.60;99.90
59128;DHT22;44912;52.754;5.994;2022-07-04T13:17:17;21.60;99.90
59128;DHT22;44912;52.754;5.994;2022-07-04T13:19:42;21.60;99.90
59128;DHT22;44912;52.754;5.994;2022-07-04T13:22:08;21.60;99.90
59128;DHT22;44912;52.754;5.994;2022-07-04T13:24:33;21.60;99.90
59128;DHT22;44912;52.754;5.994;2022-07-04T13:26:59;21.60;99.90
59128;DHT22;44912;52.754;5.994;2022-07-04T13:29:25;21.60;99.90
59128;DHT22;44912;52.754;5.994;2022-07-04T13:31:50;21.70;99.90
59128;DHT22;44912;52.754;5.994;2022-07-04T13:34:16;21.60;99.90
59128;DHT22;44912;52.754;5.994;2022-07-04T13:36:42;21.50;99.90
59128;DHT22;44912;52.754;5.994;2022-07-04T13:39:09;21.50;99.90
59128;DHT22;44912;52.754;5.994;2022-07-04T13:41:34;21.50;99.90
59128;DHT22;44912;52.754;5.994;2022-07-04T13:44:03;21.40;99.90
59128;DHT22;44912;52.754;5.994;2022-07-04T13:46:29;21.40;99.90
59128;DHT22;44912;52.754;5.994;2022-07-04T13:48:55;21.40;99.90
59128;DHT22;44912;52.754;5.994;2022-07-04T13:51:20;21.60;99.90
59128;DHT22;44912;52.754;5.994;2022-07-04T13:53:46;21.60;99.90
59128;DHT22;44912;52.754;5.994;2022-07-04T13:56:12;21.70;99.90
59128;DHT22;44912;52.754;5.994;2022-07-04T13:58:41;21.70;99.90
59128;DHT22;44912;52.754;5.994;2022-07-04T14:01:07;21.80;99.90
59128;DHT22;44912;52.754;5.994;2022-07-04T14:03:32;21.80;99.90
59128;DHT22;44912;52.754;5.994;2022-07-04T14:05:58;21.70;99.90
59128;DHT22;44912;52.754;5.994;2022-07-04T14:08:23;21.50;99.90
59128;DHT22;44912;52.754;5.994;2022-07-04T14:10:49;21.60;99.90
59128;DHT22;44912;52.754;5.994;2022-07-04T14:13:14;21.70;99.90
59128;DHT22;44912;52.754;5.994;2022-07-04T14:15:40;21.70;99.90
59128;DHT22;44912;52.754;5.994;2022-07-04T14:18:06;21.80;99.90
59128;DHT22;44912;52.754;5.994;2022-07-04T14:20:36;21.80;99.90
59128;DHT22;44912;52.754;5.994;2022-07-04T14:23:02;21.70;99.90
59128;DHT22;44912;52.754;5.994;2022-07-04T14:25:27;21.60;99.90
59128;DHT22;44912;52.754;5.994;2022-07-04T14:27:53;21.40;99.90
59128;DHT22;44912;52.754;5.994;2022-07-04T14:30:18;21.30;99.90
59128;DHT22;44912;52.754;5.994;2022-07-04T14:32:44;21.50;99.90
59128;DHT22;44912;52.754;5.994;2022-07-04T14:35:09;21.50;99.90
59128;DHT22;44912;52.754;5.994;2022-07-04T14:37:35;21.50;99.90
59128;DHT22;44912;52.754;5.994;2022-07-04T14:40:00;21.50;99.90
59128;DHT22;44912;52.754;5.994;2022-07-04T14:42:26;21.40;99.90
59128;DHT22;44912;52.754;5.994;2022-07-04T14:44:51;21.30;99.90
59128;DHT22;44912;52.754;5.994;2022-07-04T14:47:17;21.40;99.90
59128;DHT22;44912;52.754;5.994;2022-07-04T14:49:42;21.60;99.90
59128;DHT22;44912;52.754;5.994;2022-07-04T14:52:09;21.70;99.90
59128;DHT22;44912;52.754;5.994;2022-07-04T14:54:35;21.70;99.90
59128;DHT22;44912;52.754;5.994;2022-07-04T14:57:01;21.60;99.90
59128;DHT22;44912;52.754;5.994;2022-07-04T14:59:26;21.60;99.90
59128;DHT22;44912;52.754;5.994;2022-07-04T15:01:52;21.50;99.90
59128;DHT22;44912;52.754;5.994;2022-07-04T15:04:18;21.50;99.90
59128;DHT22;44912;52.754;5.994;2022-07-04T15:06:44;21.60;99.90
59128;DHT22;44912;52.754;5.994;2022-07-04T15:09:10;21.30;99.90
59128;DHT22;44912;52.754;5.994;2022-07-04T15:11:36;21.00;99.90
59128;DHT22;44912;52.754;5.994;2022-07-04T15:14:02;21.10;99.90
59128;DHT22;44912;52.754;5.994;2022-07-04T15:16:27;21.30;99.90
59128;DHT22;44912;52.754;5.994;2022-07-04T15:18:53;21.30;99.90
59128;DHT22;44912;52.754;5.994;2022-07-04T15:21:19;21.40;99.90
59128;DHT22;44912;52.754;5.994;2022-07-04T15:24:04;21.40;99.90
59128;DHT22;44912;52.754;5.994;2022-07-04T15:26:36;21.40;99.90
59128;DHT22;44912;52.754;5.994;2022-07-04T15:29:02;21.40;99.90
59128;DHT22;44912;52.754;5.994;2022-07-04T15:31:27;21.40;99.90
59128;DHT22;44912;52.754;5.994;2022-07-04T15:33:53;21.40;99.90
59128;DHT22;44912;52.754;5.994;2022-07-04T15:36:19;21.50;99.90
59128;DHT22;44912;52.754;5.994;2022-07-04T15:38:44;21.60;99.90
59128;DHT22;44912;52.754;5.994;2022-07-04T15:41:10;21.40;99.90
59128;DHT22;44912;52.754;5.994;2022-07-04T15:43:40;21.30;99.90
59128;DHT22;44912;52.754;5.994;2022-07-04T15:46:06;21.20;99.90
59128;DHT22;44912;52.754;5.994;2022-07-04T15:48:32;21.20;99.90
59128;DHT22;44912;52.754;5.994;2022-07-04T15:50:57;21.20;99.90
59128;DHT22;44912;52.754;5.994;2022-07-04T15:53:23;21.10;99.90